Time;durP1;ratioP1;P1;durP2;ratioP2;P2;SDS_P1;SDS_P2;PMS_P1;PMS_P2;Temp;Humidity;BMP_temperature;BMP_pressure;BME280_temperature;BME280_humidity;BME280_pressure;Samples;Min_cycle;Max_cycle;Signal;HPM_P1;HPM_P2
2021/01/19 00:01:43;;;;;;;4.70;3.90;;;3.80;99.90;;;;;;5068390;28;20205;-78
2021/01/19 00:04:09;;;;;;;3.60;2.90;;;3.70;99.90;;;;;;5051824;28;20194;-79
2021/01/19 00:06:36;;;;;;;3.80;3.00;;;3.50;99.90;;;;;;5018297;28;20387;-79
2021/01/19 00:09:03;;;;;;;5.37;3.37;;;3.50;99.90;;;;;;5069977;28;20237;-80
2021/01/19 00:11:29;;;;;;;6.10;2.90;;;3.50;99.90;;;;;;5004155;28;20398;-80
2021/01/19 00:13:55;;;;;;;4.13;3.53;;;3.50;99.90;;;;;;5070613;28;20406;-80
2021/01/19 00:16:21;;;;;;;4.00;2.97;;;3.60;99.90;;;;;;5053859;28;20469;-81
2021/01/19 00:18:46;;;;;;;4.20;3.00;;;3.60;99.90;;;;;;5002755;28;20402;-81
2021/01/19 00:21:12;;;;;;;7.20;3.63;;;3.60;99.90;;;;;;5071006;28;20166;-80
2021/01/19 00:23:38;;;;;;;3.70;2.43;;;3.70;99.90;;;;;;5076203;28;20166;-80
2021/01/19 00:26:04;;;;;;;4.33;3.33;;;3.80;99.90;;;;;;5005959;28;20189;-81
2021/01/19 00:28:30;;;;;;;3.23;2.90;;;3.90;99.90;;;;;;5004358;28;20467;-81
2021/01/19 00:30:56;;;;;;;2.37;2.17;;;3.90;99.90;;;;;;5004060;28;20225;-81
2021/01/19 00:33:21;;;;;;;8.80;2.63;;;4.00;99.90;;;;;;5054904;28;20428;-80
2021/01/19 00:35:47;;;;;;;5.03;2.83;;;4.00;99.90;;;;;;5003931;28;20163;-81
2021/01/19 00:38:13;;;;;;;6.93;3.03;;;3.70;99.90;;;;;;5003136;28;20272;-81
2021/01/19 00:40:39;;;;;;;5.10;3.33;;;3.60;99.90;;;;;;5076129;28;20233;-79
2021/01/19 00:43:05;;;;;;;15.33;3.50;;;3.70;99.90;;;;;;5080151;28;20222;-78
2021/01/19 00:45:30;;;;;;;7.57;4.33;;;3.70;99.90;;;;;;5063713;28;20205;-78
2021/01/19 00:47:56;;;;;;;2.93;2.70;;;3.60;99.90;;;;;;5011545;28;20150;-81
2021/01/19 00:50:22;;;;;;;5.80;2.23;;;3.70;99.90;;;;;;5011192;28;20173;-80
2021/01/19 00:52:48;;;;;;;10.60;2.87;;;3.80;99.90;;;;;;5011560;28;20200;-79
2021/01/19 00:55:15;;;;;;;3.57;3.27;;;3.80;99.90;;;;;;5009844;28;20170;-78
2021/01/19 00:57:43;;;;;;;2.37;2.17;;;3.80;99.90;;;;;;5078561;28;20162;-78
2021/01/19 01:00:10;;;;;;;3.57;2.43;;;3.60;99.90;;;;;;5077420;28;20364;-79
2021/01/19 01:02:36;;;;;;;3.50;2.20;;;3.70;99.90;;;;;;5077957;28;20372;-80
2021/01/19 01:05:04;;;;;;;7.53;2.33;;;3.70;99.90;;;;;;5010602;28;20441;-79
2021/01/19 01:07:34;;;;;;;4.00;2.77;;;3.80;99.90;;;;;;5075873;28;20886;-80
2021/01/19 01:10:01;;;;;;;5.37;3.20;;;3.90;99.90;;;;;;5009215;28;20839;-80
2021/01/19 01:12:26;;;;;;;1.80;1.70;;;3.80;99.90;;;;;;5077156;28;20398;-79
2021/01/19 01:14:53;;;;;;;3.50;2.60;;;3.80;99.90;;;;;;5010438;28;20423;-79
2021/01/19 01:17:19;;;;;;;2.10;1.70;;;3.70;99.90;;;;;;5012080;28;20162;-79
2021/01/19 01:19:44;;;;;;;2.93;2.50;;;3.70;99.90;;;;;;5011299;28;20446;-78
2021/01/19 01:22:10;;;;;;;2.80;2.60;;;3.70;99.90;;;;;;5012502;28;20180;-78
2021/01/19 01:24:36;;;;;;;3.23;2.53;;;3.70;99.90;;;;;;5081231;28;20268;-78
2021/01/19 01:27:02;;;;;;;6.77;4.00;;;3.70;99.90;;;;;;5003395;28;20253;-80
2021/01/19 01:29:28;;;;;;;5.93;3.00;;;3.80;99.90;;;;;;5005736;28;20170;-81
2021/01/19 01:31:53;;;;;;;1.77;1.67;;;3.80;99.90;;;;;;5006311;28;20217;-81
2021/01/19 01:34:19;;;;;;;2.20;2.00;;;3.70;99.90;;;;;;5069601;28;20263;-81
2021/01/19 01:36:45;;;;;;;2.13;1.90;;;3.70;99.90;;;;;;5070010;28;20170;-81
2021/01/19 01:39:11;;;;;;;4.37;2.17;;;3.70;99.90;;;;;;5070290;28;20177;-81
2021/01/19 01:41:36;;;;;;;2.37;2.17;;;3.50;99.90;;;;;;5070074;28;20167;-80
2021/01/19 01:44:02;;;;;;;2.00;1.90;;;3.70;99.90;;;;;;5002495;28;20202;-81
2021/01/19 01:46:31;;;;;;;2.73;2.53;;;3.70;99.90;;;;;;5053228;28;20197;-80
2021/01/19 01:48:57;;;;;;;2.70;1.90;;;3.50;99.90;;;;;;5003047;28;20398;-81
2021/01/19 01:51:24;;;;;;;3.90;2.60;;;3.60;99.90;;;;;;5002276;28;20394;-80
2021/01/19 01:53:51;;;;;;;2.30;2.10;;;3.50;99.90;;;;;;5003255;28;20495;-81
2021/01/19 01:56:18;;;;;;;3.00;1.90;;;3.60;99.90;;;;;;5002930;28;20822;-81
2021/01/19 01:58:45;;;;;;;2.80;2.60;;;3.60;99.90;;;;;;5068745;28;20423;-81
2021/01/19 02:01:11;;;;;;;21.30;3.73;;;3.70;99.90;;;;;;5069750;28;20862;-80
2021/01/19 02:03:37;;;;;;;8.73;1.70;;;3.70;99.90;;;;;;5002450;28;20397;-80
2021/01/19 02:06:03;;;;;;;3.30;1.87;;;3.70;99.90;;;;;;5003333;28;20397;-81
2021/01/19 02:08:41;;;;;;;5.37;1.80;;;3.80;99.90;;;;;;5002765;28;20162;-80
2021/01/19 02:11:16;;;;;;;2.63;2.43;;;3.90;99.90;;;;;;5002782;28;20400;-80
2021/01/19 02:13:59;;;;;;;3.13;2.40;;;3.90;99.90;;;;;;5001708;28;20762;-80
2021/01/19 02:16:37;;;;;;;8.43;3.17;;;3.90;99.90;;;;;;5069186;28;20397;-80
2021/01/19 02:19:39;;;;;;;1.90;1.50;;;3.70;99.90;;;;;;5002366;28;20380;-80
2021/01/19 02:22:40;;;;;;;29.97;2.83;;;3.80;99.90;;;;;;5002520;28;20573;-81
2021/01/19 02:25:30;;;;;;;4.47;1.77;;;3.80;99.90;;;;;;5001699;28;20452;-80
2021/01/19 02:28:18;;;;;;;2.67;2.13;;;3.70;99.90;;;;;;5002285;28;20428;-81
2021/01/19 02:31:09;;;;;;;1.70;1.60;;;3.80;99.90;;;;;;5002950;28;20500;-79
2021/01/19 02:33:43;;;;;;;6.20;3.00;;;3.90;99.90;;;;;;5002413;28;20461;-80
2021/01/19 02:36:32;;;;;;;4.23;1.73;;;3.90;99.90;;;;;;5066473;28;20407;-80
2021/01/19 02:39:01;;;;;;;3.63;2.03;;;3.80;99.90;;;;;;5054641;28;20397;-80
2021/01/19 02:41:28;;;;;;;2.23;1.77;;;3.80;99.90;;;;;;5072074;28;20405;-80
2021/01/19 02:44:04;;;;;;;2.90;1.63;;;3.90;99.90;;;;;;5005148;28;20456;-80
2021/01/19 02:46:30;;;;;;;1.90;1.70;;;3.80;99.90;;;;;;5071842;28;20512;-80
2021/01/19 02:48:56;;;;;;;2.40;2.20;;;3.50;99.90;;;;;;5003799;28;20394;-80
2021/01/19 02:51:22;;;;;;;2.50;1.60;;;3.40;99.90;;;;;;5072426;28;20437;-80
2021/01/19 02:53:51;;;;;;;5.80;1.77;;;3.30;99.90;;;;;;5005405;28;20162;-79
2021/01/19 02:56:40;;;;;;;2.80;2.20;;;3.20;99.90;;;;;;5004634;28;20253;-80
2021/01/19 02:59:23;;;;;;;3.43;1.63;;;3.20;99.90;;;;;;5004625;28;20445;-80
2021/01/19 03:01:58;;;;;;;1.80;1.60;;;3.30;99.90;;;;;;5005169;28;20401;-79
2021/01/19 03:04:25;;;;;;;4.30;2.13;;;3.20;99.90;;;;;;5005113;28;20448;-80
2021/01/19 03:06:53;;;;;;;1.87;1.73;;;3.40;99.90;;;;;;5004422;28;20905;-81
2021/01/19 03:09:19;;;;;;;2.33;2.13;;;3.40;99.90;;;;;;5072313;28;20621;-80
2021/01/19 03:11:48;;;;;;;2.20;2.00;;;3.50;99.90;;;;;;5004682;28;20400;-80
2021/01/19 03:14:14;;;;;;;3.57;2.40;;;3.60;99.90;;;;;;5004802;28;20401;-80
2021/01/19 03:16:40;;;;;;;2.70;2.50;;;3.50;99.90;;;;;;5072379;28;20427;-80
2021/01/19 03:19:06;;;;;;;3.53;2.10;;;3.30;99.90;;;;;;5004671;28;20585;-80
2021/01/19 03:21:32;;;;;;;3.57;1.97;;;3.20;99.90;;;;;;5070796;28;20545;-80
2021/01/19 03:23:57;;;;;;;1.93;1.83;;;3.10;99.90;;;;;;5003045;28;20206;-81
2021/01/19 03:26:23;;;;;;;2.40;2.20;;;3.00;99.90;;;;;;5004453;28;20163;-79
2021/01/19 03:28:49;;;;;;;1.80;1.70;;;3.00;99.90;;;;;;5078411;28;20172;-80
2021/01/19 03:31:15;;;;;;;6.57;3.27;;;3.10;99.90;;;;;;5006169;28;20239;-81
2021/01/19 03:33:40;;;;;;;3.40;1.83;;;3.10;99.90;;;;;;5004921;28;20232;-80
2021/01/19 03:36:07;;;;;;;4.67;2.10;;;3.00;99.90;;;;;;5074378;28;20158;-79
2021/01/19 03:38:32;;;;;;;1.77;1.67;;;2.90;99.90;;;;;;5058268;28;20159;-80
2021/01/19 03:40:58;;;;;;;3.10;2.20;;;2.90;99.90;;;;;;5072416;28;20401;-80
2021/01/19 03:43:24;;;;;;;3.03;2.43;;;2.90;99.90;;;;;;5071316;28;20166;-80
2021/01/19 03:45:50;;;;;;;1.73;1.63;;;3.00;99.90;;;;;;5004453;28;20206;-81
2021/01/19 03:48:16;;;;;;;2.13;1.80;;;2.90;99.90;;;;;;5071030;28;20499;-81
2021/01/19 03:50:42;;;;;;;7.70;2.17;;;2.90;99.90;;;;;;5003493;28;20401;-79
2021/01/19 03:53:07;;;;;;;2.00;1.80;;;2.90;99.90;;;;;;5004104;28;20190;-81
2021/01/19 03:55:34;;;;;;;2.13;1.60;;;2.90;99.90;;;;;;5006328;28;20249;-81
2021/01/19 03:58:01;;;;;;;2.10;1.90;;;2.90;99.90;;;;;;5006504;28;20201;-81
2021/01/19 04:00:27;;;;;;;4.60;2.17;;;2.90;99.90;;;;;;5073924;28;20875;-80
2021/01/19 04:02:53;;;;;;;2.20;1.50;;;2.90;99.90;;;;;;5007354;28;20380;-80
2021/01/19 04:05:18;;;;;;;2.20;2.00;;;2.90;99.90;;;;;;5076241;28;20205;-80
2021/01/19 04:07:47;;;;;;;2.87;1.87;;;2.80;99.90;;;;;;5065971;28;20172;-78
2021/01/19 04:10:14;;;;;;;2.27;2.10;;;2.80;99.90;;;;;;5083768;28;20426;-78
2021/01/19 04:12:41;;;;;;;2.17;2.03;;;2.90;99.90;;;;;;5075314;28;20228;-80
2021/01/19 04:15:08;;;;;;;5.17;1.63;;;2.80;99.90;;;;;;5072378;28;20454;-81
2021/01/19 04:17:34;;;;;;;2.20;1.97;;;2.70;99.90;;;;;;5002028;28;20398;-80
2021/01/19 04:20:01;;;;;;;2.10;1.83;;;2.80;99.90;;;;;;5002725;28;20473;-80
2021/01/19 04:22:27;;;;;;;3.87;2.33;;;2.80;99.90;;;;;;5003713;28;20431;-80
2021/01/19 04:24:52;;;;;;;2.63;2.43;;;2.80;99.90;;;;;;5059789;28;20444;-80
2021/01/19 04:27:19;;;;;;;1.43;1.33;;;2.70;99.90;;;;;;5055805;28;20651;-81
2021/01/19 04:29:45;;;;;;;1.77;1.63;;;2.80;99.90;;;;;;5070013;28;20501;-80
2021/01/19 04:32:11;;;;;;;2.93;2.20;;;2.80;99.90;;;;;;5002439;28;20402;-80
2021/01/19 04:34:37;;;;;;;6.33;2.73;;;2.70;99.90;;;;;;5002730;28;20438;-80
2021/01/19 04:37:03;;;;;;;2.80;2.53;;;2.70;99.90;;;;;;5002673;28;20776;-80
2021/01/19 04:39:29;;;;;;;1.93;1.73;;;2.70;99.90;;;;;;5002365;28;20170;-81
2021/01/19 04:41:55;;;;;;;2.17;2.07;;;2.70;99.90;;;;;;5003243;28;20251;-81
2021/01/19 04:44:22;;;;;;;1.87;1.77;;;2.70;99.90;;;;;;5002681;28;20427;-81
2021/01/19 04:46:49;;;;;;;8.00;3.37;;;2.60;99.90;;;;;;4998163;28;20407;-80
2021/01/19 04:49:16;;;;;;;2.03;1.73;;;2.60;99.90;;;;;;5050241;28;20401;-80
2021/01/19 04:51:47;;;;;;;5.57;2.40;;;2.80;99.90;;;;;;4983735;28;20454;-80
2021/01/19 04:54:17;;;;;;;3.27;2.07;;;2.70;99.90;;;;;;5048499;28;20751;-81
2021/01/19 04:56:53;;;;;;;4.77;1.47;;;2.70;99.90;;;;;;4982832;28;20426;-81
2021/01/19 04:59:23;;;;;;;3.63;2.10;;;2.60;99.90;;;;;;4982891;28;20376;-80
2021/01/19 05:02:29;;;;;;;3.37;1.83;;;2.60;99.90;;;;;;5048661;28;20378;-80
2021/01/19 05:05:33;;;;;;;1.87;1.77;;;2.60;99.90;;;;;;5026415;28;20462;-81
2021/01/19 05:08:23;;;;;;;2.80;2.23;;;2.60;99.90;;;;;;5037703;28;20402;-80
2021/01/19 05:10:58;;;;;;;1.50;1.40;;;2.70;99.90;;;;;;4983373;28;20403;-80
2021/01/19 05:13:49;;;;;;;1.83;1.60;;;2.70;99.90;;;;;;5049022;28;20462;-81
2021/01/19 05:16:18;;;;;;;9.43;2.80;;;2.70;99.90;;;;;;5033973;28;20438;-81
2021/01/19 05:18:45;;;;;;;1.83;1.73;;;2.60;99.90;;;;;;5028523;28;20444;-80
2021/01/19 05:21:11;;;;;;;2.60;2.17;;;2.60;99.90;;;;;;5029379;28;20844;-81
2021/01/19 05:23:37;;;;;;;1.63;1.53;;;2.70;99.90;;;;;;4963342;29;20750;-80
2021/01/19 05:26:05;;;;;;;2.17;1.57;;;2.70;99.90;;;;;;4964005;29;20382;-81
2021/01/19 05:28:35;;;;;;;1.50;1.40;;;2.80;99.90;;;;;;4962684;29;20164;-81
2021/01/19 05:31:07;;;;;;;2.17;1.97;;;2.90;99.90;;;;;;5032810;28;20422;-78
2021/01/19 05:33:34;;;;;;;2.03;1.80;;;2.70;99.90;;;;;;5034765;28;20461;-78
2021/01/19 05:36:08;;;;;;;3.30;2.50;;;2.80;99.90;;;;;;5037649;28;20411;-78
2021/01/19 05:38:55;;;;;;;3.60;2.40;;;2.80;99.90;;;;;;4970335;29;20478;-80
2021/01/19 05:41:35;;;;;;;2.40;2.00;;;2.80;99.90;;;;;;4962858;28;20370;-80
2021/01/19 05:44:11;;;;;;;2.73;2.20;;;2.70;99.90;;;;;;5029674;28;20816;-80
2021/01/19 05:46:43;;;;;;;2.60;1.97;;;2.80;99.90;;;;;;5028965;28;20415;-81
2021/01/19 05:49:15;;;;;;;3.37;3.07;;;2.70;99.90;;;;;;4970088;28;20492;-81
2021/01/19 05:51:42;;;;;;;1.77;1.60;;;2.70;99.90;;;;;;5002640;28;20394;-81
2021/01/19 05:54:19;;;;;;;3.70;2.13;;;2.70;99.90;;;;;;5002166;28;20742;-81
2021/01/19 05:56:48;;;;;;;6.77;3.90;;;2.70;99.90;;;;;;5001958;28;20397;-81
2021/01/19 05:59:35;;;;;;;2.80;1.80;;;2.90;99.90;;;;;;5001296;28;20439;-81
2021/01/19 06:02:04;;;;;;;8.77;2.47;;;2.90;99.90;;;;;;5000603;28;20387;-81
2021/01/19 06:04:33;;;;;;;2.73;2.00;;;2.80;99.90;;;;;;5002153;28;20488;-81
2021/01/19 06:07:00;;;;;;;5.77;2.53;;;2.80;99.90;;;;;;5067168;28;20484;-81
2021/01/19 06:09:26;;;;;;;2.53;2.20;;;2.70;99.90;;;;;;5001026;28;20397;-81
2021/01/19 06:11:55;;;;;;;6.63;2.33;;;2.70;99.90;;;;;;5068978;28;20375;-81
2021/01/19 06:14:24;;;;;;;3.03;1.93;;;2.80;99.90;;;;;;5062112;28;20392;-78
2021/01/19 06:16:50;;;;;;;1.50;1.40;;;2.70;99.90;;;;;;4995112;28;20418;-78
2021/01/19 06:19:31;;;;;;;5.37;2.20;;;2.80;99.90;;;;;;4995330;28;20490;-78
2021/01/19 06:21:58;;;;;;;4.33;2.60;;;2.60;99.90;;;;;;4994769;28;20506;-78
2021/01/19 06:24:34;;;;;;;2.77;2.57;;;2.70;99.90;;;;;;4994518;28;20557;-78
2021/01/19 06:27:00;;;;;;;3.90;2.03;;;2.70;99.90;;;;;;5061068;28;20418;-79
2021/01/19 06:29:27;;;;;;;2.27;2.13;;;2.80;99.90;;;;;;5061505;28;20451;-78
2021/01/19 06:31:56;;;;;;;2.30;1.73;;;2.80;99.90;;;;;;4994669;28;20471;-78
2021/01/19 06:34:25;;;;;;;4.60;3.07;;;2.80;99.90;;;;;;5062009;28;20436;-78
2021/01/19 06:36:51;;;;;;;5.13;2.47;;;2.70;99.90;;;;;;5060955;28;20426;-78
2021/01/19 06:39:30;;;;;;;1.80;1.70;;;2.80;99.90;;;;;;4991853;28;20410;-80
2021/01/19 06:42:14;;;;;;;2.50;2.30;;;2.70;99.90;;;;;;4965425;29;20413;-81
2021/01/19 06:44:44;;;;;;;2.60;1.87;;;2.80;99.90;;;;;;4969557;28;20432;-80
2021/01/19 06:47:10;;;;;;;5.20;2.97;;;2.70;99.90;;;;;;4984908;28;20413;-80
2021/01/19 06:49:39;;;;;;;4.23;2.70;;;2.80;99.90;;;;;;5033490;28;20430;-80
2021/01/19 06:52:10;;;;;;;1.93;1.83;;;2.80;99.90;;;;;;5034434;28;20394;-80
2021/01/19 06:55:02;;;;;;;6.23;2.40;;;2.80;99.90;;;;;;5048980;28;20401;-81
2021/01/19 06:57:32;;;;;;;3.90;2.20;;;2.80;99.90;;;;;;4965469;29;20502;-80
2021/01/19 07:00:10;;;;;;;2.40;2.20;;;2.80;99.90;;;;;;5023716;28;20406;-80
2021/01/19 07:02:38;;;;;;;2.73;2.10;;;2.70;99.90;;;;;;5025544;28;20378;-81
2021/01/19 07:05:10;;;;;;;8.53;2.60;;;2.80;99.90;;;;;;5024521;28;20442;-80
2021/01/19 07:07:42;;;;;;;3.97;2.20;;;2.80;99.90;;;;;;5023845;28;20420;-79
2021/01/19 07:10:11;;;;;;;2.97;2.77;;;2.70;99.90;;;;;;5023937;28;20396;-80
2021/01/19 07:12:59;;;;;;;2.57;2.37;;;2.70;99.90;;;;;;5022772;28;20414;-78
2021/01/19 07:16:05;;;;;;;4.07;2.60;;;2.60;99.90;;;;;;5020943;28;20869;-81
2021/01/19 07:18:45;;;;;;;4.53;3.10;;;2.60;99.90;;;;;;5011809;28;20394;-78
2021/01/19 07:21:13;;;;;;;2.60;2.27;;;2.60;99.90;;;;;;5006138;28;20403;-81
2021/01/19 07:24:14;;;;;;;7.83;2.40;;;2.80;99.90;;;;;;5006517;28;20467;-80
2021/01/19 07:26:42;;;;;;;2.40;2.17;;;2.70;99.90;;;;;;5013970;28;20424;-81
2021/01/19 07:29:08;;;;;;;2.67;2.57;;;2.80;99.90;;;;;;5023259;28;20428;-81
2021/01/19 07:31:34;;;;;;;7.70;2.20;;;2.90;99.90;;;;;;5026232;28;20456;-81
2021/01/19 07:34:03;;;;;;;3.10;2.90;;;2.90;99.90;;;;;;5021216;28;20499;-80
2021/01/19 07:36:32;;;;;;;2.23;1.70;;;2.80;99.90;;;;;;5017028;28;20446;-78
2021/01/19 07:38:58;;;;;;;2.90;1.97;;;3.00;99.90;;;;;;5048630;28;20399;-79
2021/01/19 07:41:26;;;;;;;3.10;2.83;;;2.80;99.90;;;;;;5049548;28;20426;-80
2021/01/19 07:43:53;;;;;;;2.30;2.17;;;2.80;99.90;;;;;;4982027;28;20397;-79
2021/01/19 07:46:27;;;;;;;2.03;1.93;;;2.90;99.90;;;;;;5023692;28;20907;-79
2021/01/19 07:49:02;;;;;;;7.43;2.40;;;2.90;99.90;;;;;;5043467;28;20439;-79
2021/01/19 07:51:44;;;;;;;3.17;2.43;;;2.80;99.90;;;;;;5041374;28;20393;-79
2021/01/19 07:54:13;;;;;;;2.33;2.00;;;2.80;99.90;;;;;;4998160;28;21626;-80
2021/01/19 07:56:39;;;;;;;6.27;2.50;;;2.80;99.90;;;;;;4972193;28;20400;-78
2021/01/19 07:59:17;;;;;;;3.20;2.67;;;2.90;99.90;;;;;;4981172;28;20481;-79
2021/01/19 08:01:57;;;;;;;5.43;3.22;;;3.00;99.90;;;;;;5037484;28;20503;-79
2021/01/19 08:04:32;;;;;;;5.82;3.08;;;2.90;99.90;;;;;;5040374;28;20480;-80
2021/01/19 08:07:09;;;;;;;4.60;3.80;;;2.80;99.90;;;;;;4970468;28;20221;-79
2021/01/19 08:09:36;;;;;;;2.47;2.27;;;2.80;99.90;;;;;;5003638;28;20430;-80
2021/01/19 08:12:06;;;;;;;5.30;2.83;;;2.80;99.90;;;;;;5027162;28;20440;-80
2021/01/19 08:14:37;;;;;;;2.23;2.03;;;2.90;99.90;;;;;;5058165;28;20748;-80
2021/01/19 08:17:04;;;;;;;3.67;1.93;;;2.80;99.90;;;;;;5050394;28;20441;-79
2021/01/19 08:19:46;;;;;;;8.00;2.30;;;2.90;99.90;;;;;;5057964;28;20406;-78
2021/01/19 08:22:13;;;;;;;2.30;2.10;;;2.90;99.90;;;;;;5055145;28;20984;-77
2021/01/19 08:24:42;;;;;;;2.87;1.83;;;2.90;99.90;;;;;;4985179;28;20432;-79
2021/01/19 08:27:11;;;;;;;4.17;1.70;;;2.80;99.90;;;;;;4968729;28;20402;-78
2021/01/19 08:29:38;;;;;;;5.23;2.23;;;2.90;99.90;;;;;;5043745;28;20400;-79
2021/01/19 08:32:07;;;;;;;3.97;2.60;;;3.00;99.90;;;;;;5017072;28;20434;-78
2021/01/19 08:34:33;;;;;;;3.03;2.83;;;2.90;99.90;;;;;;5049986;28;20470;-78
2021/01/19 08:37:01;;;;;;;4.63;2.07;;;2.90;99.90;;;;;;5042705;28;20560;-82
2021/01/19 08:39:27;;;;;;;1.80;1.70;;;2.90;99.90;;;;;;4975551;28;20510;-80
2021/01/19 08:41:55;;;;;;;3.17;2.97;;;2.90;99.90;;;;;;5047390;28;20896;-81
2021/01/19 08:44:21;;;;;;;3.40;2.37;;;2.90;99.90;;;;;;5049301;28;20458;-82
2021/01/19 08:46:48;;;;;;;2.57;2.37;;;2.90;99.90;;;;;;5005751;28;20434;-82
2021/01/19 08:49:18;;;;;;;2.83;2.57;;;2.90;99.90;;;;;;5024752;28;20448;-83
2021/01/19 08:51:49;;;;;;;4.60;2.40;;;2.90;99.90;;;;;;5037880;28;20439;-82
2021/01/19 08:54:15;;;;;;;5.07;3.43;;;2.90;99.90;;;;;;4983739;28;20422;-82
2021/01/19 08:57:10;;;;;;;1.80;1.70;;;2.90;99.90;;;;;;5033426;28;20430;-83
2021/01/19 08:59:36;;;;;;;2.90;2.50;;;2.90;99.90;;;;;;5017190;28;20415;-82
2021/01/19 09:02:03;;;;;;;6.10;2.60;;;3.00;99.90;;;;;;5015337;28;20464;-82
2021/01/19 09:04:29;;;;;;;9.97;3.07;;;3.10;99.90;;;;;;5016080;28;20298;-82
2021/01/19 09:07:07;;;;;;;9.57;2.50;;;3.20;99.90;;;;;;5016261;28;20452;-81
2021/01/19 09:09:34;;;;;;;5.53;2.20;;;3.10;99.90;;;;;;5019497;28;20442;-82
2021/01/19 09:12:00;;;;;;;3.90;2.23;;;3.20;99.90;;;;;;5018623;28;20399;-82
2021/01/19 09:14:27;;;;;;;3.00;2.70;;;3.30;99.90;;;;;;5021668;28;20442;-83
2021/01/19 09:16:54;;;;;;;2.40;2.03;;;3.40;99.90;;;;;;5022955;28;20342;-82
2021/01/19 09:19:21;;;;;;;2.97;2.67;;;3.30;99.90;;;;;;5022178;28;20471;-83
2021/01/19 09:21:47;;;;;;;8.67;2.47;;;3.10;99.90;;;;;;5021923;28;20421;-82
2021/01/19 09:24:15;;;;;;;4.43;2.80;;;2.90;99.90;;;;;;5020386;28;20948;-82
2021/01/19 09:29:23;;;;;;;2.20;2.00;;;3.00;99.90;;;;;;5005382;28;21018;-82
2021/01/19 09:31:50;;;;;;;4.50;2.40;;;3.00;99.90;;;;;;5051570;28;20417;-81
2021/01/19 09:34:19;;;;;;;2.70;2.23;;;3.20;99.90;;;;;;5049878;28;20238;-82
2021/01/19 09:36:48;;;;;;;3.50;1.83;;;3.20;99.90;;;;;;5051845;28;20481;-81
2021/01/19 09:39:14;;;;;;;1.50;1.40;;;3.10;99.90;;;;;;4994834;28;20525;-81
2021/01/19 09:41:44;;;;;;;3.37;3.13;;;3.00;99.90;;;;;;5039551;28;20435;-80
2021/01/19 09:44:12;;;;;;;3.40;2.20;;;3.10;99.90;;;;;;4983799;28;20198;-80
2021/01/19 09:46:38;;;;;;;2.63;1.90;;;3.30;99.90;;;;;;4977752;28;20450;-80
2021/01/19 09:49:04;;;;;;;1.87;1.70;;;3.30;99.90;;;;;;5049756;28;20427;-82
2021/01/19 09:51:30;;;;;;;1.70;1.60;;;3.30;99.90;;;;;;4990959;28;20413;-81
2021/01/19 09:53:57;;;;;;;3.40;2.97;;;3.40;99.90;;;;;;4980043;28;20434;-82
2021/01/19 09:56:24;;;;;;;2.30;2.10;;;3.40;99.90;;;;;;5031358;28;20423;-82
2021/01/19 09:59:01;;;;;;;2.87;2.40;;;3.50;99.90;;;;;;5048751;28;20426;-82
2021/01/19 10:01:30;;;;;;;3.20;2.23;;;3.50;99.90;;;;;;5023264;28;20425;-82
2021/01/19 10:03:57;;;;;;;8.80;2.17;;;3.30;99.90;;;;;;5022836;28;20432;-82
2021/01/19 10:06:25;;;;;;;1.73;1.63;;;3.30;99.90;;;;;;5021778;28;20490;-81
2021/01/19 10:08:52;;;;;;;4.10;2.73;;;3.30;99.90;;;;;;5023709;28;20434;-82
2021/01/19 10:11:38;;;;;;;3.10;2.10;;;3.20;99.90;;;;;;5020064;28;20601;-82
2021/01/19 10:14:13;;;;;;;5.87;2.30;;;3.30;99.90;;;;;;5012128;28;20428;-82
2021/01/19 10:16:53;;;;;;;3.80;1.90;;;3.40;99.90;;;;;;5010339;28;20417;-81
2021/01/19 10:19:21;;;;;;;6.43;2.83;;;3.40;99.90;;;;;;5009300;28;20482;-82
2021/01/19 10:21:51;;;;;;;7.90;2.50;;;3.30;99.90;;;;;;5023181;28;20409;-83
2021/01/19 10:24:24;;;;;;;2.40;2.07;;;3.30;99.90;;;;;;5019532;28;20474;-81
2021/01/19 10:27:08;;;;;;;8.33;2.30;;;3.40;99.90;;;;;;4987777;28;20417;-82
2021/01/19 10:29:43;;;;;;;4.27;2.50;;;3.30;99.90;;;;;;5012620;28;20431;-82
2021/01/19 10:32:13;;;;;;;3.37;2.20;;;3.30;99.90;;;;;;4968941;28;20445;-82
2021/01/19 10:34:45;;;;;;;1.43;1.33;;;3.30;99.90;;;;;;5004971;28;20490;-82
2021/01/19 10:37:11;;;;;;;1.60;1.50;;;3.40;99.90;;;;;;5025010;28;20811;-83
2021/01/19 10:39:59;;;;;;;1.33;1.23;;;3.30;99.90;;;;;;5040747;28;20415;-81
2021/01/19 10:42:26;;;;;;;2.30;2.17;;;3.20;99.90;;;;;;4996635;28;20782;-83
2021/01/19 10:44:56;;;;;;;1.90;1.77;;;3.10;99.90;;;;;;4997352;28;20479;-81
2021/01/19 10:47:22;;;;;;;2.20;2.00;;;3.10;99.90;;;;;;4999153;28;20411;-81
2021/01/19 10:49:48;;;;;;;2.20;2.00;;;3.10;99.90;;;;;;5002234;28;20547;-83
2021/01/19 10:52:14;;;;;;;3.83;2.30;;;3.20;99.90;;;;;;4986149;28;20190;-82
2021/01/19 10:54:40;;;;;;;5.07;3.20;;;3.10;99.90;;;;;;5000389;28;20417;-81
2021/01/19 10:57:07;;;;;;;5.73;3.30;;;3.10;99.90;;;;;;5002551;28;20856;-82
2021/01/19 10:59:34;;;;;;;5.80;2.47;;;3.00;99.90;;;;;;5001946;28;20421;-81
2021/01/19 11:02:04;;;;;;;2.83;2.47;;;3.10;99.90;;;;;;5003929;28;20529;-81
2021/01/19 11:04:30;;;;;;;8.67;2.20;;;3.10;99.90;;;;;;5009462;28;20429;-81
2021/01/19 11:06:56;;;;;;;2.83;2.37;;;3.20;99.90;;;;;;5035375;28;20461;-81
2021/01/19 11:09:22;;;;;;;10.33;2.60;;;3.20;99.90;;;;;;5047666;28;20874;-82
2021/01/19 11:11:48;;;;;;;6.43;2.10;;;3.30;99.90;;;;;;5039354;28;20180;-82
2021/01/19 11:14:14;;;;;;;1.93;1.77;;;3.30;99.90;;;;;;5061200;28;20449;-82
2021/01/19 11:16:41;;;;;;;2.83;2.27;;;3.30;99.90;;;;;;5068366;28;20518;-81
2021/01/19 11:19:10;;;;;;;1.83;1.63;;;3.20;99.90;;;;;;5064258;28;20397;-80
2021/01/19 11:21:36;;;;;;;3.17;2.40;;;3.30;99.90;;;;;;5062117;28;20437;-81
2021/01/19 11:24:04;;;;;;;4.20;2.93;;;3.20;99.90;;;;;;5057010;28;20418;-81
2021/01/19 11:26:30;;;;;;;21.40;3.00;;;3.30;99.90;;;;;;5075862;28;20456;-83
2021/01/19 11:28:56;;;;;;;2.53;2.37;;;3.40;99.90;;;;;;5067533;28;20887;-82
2021/01/19 11:31:25;;;;;;;5.00;2.10;;;3.30;99.90;;;;;;5079940;28;20408;-82
2021/01/19 11:33:54;;;;;;;3.50;2.63;;;3.20;99.90;;;;;;5065667;28;20497;-81
2021/01/19 11:36:22;;;;;;;8.95;2.40;;;3.20;99.90;;;;;;5055022;28;20406;-80
2021/01/19 11:38:48;;;;;;;2.70;1.73;;;3.20;99.90;;;;;;5077686;28;20376;-80
2021/01/19 11:41:19;;;;;;;1.87;1.70;;;3.10;99.90;;;;;;5074801;28;20510;-83
2021/01/19 11:43:45;;;;;;;2.20;2.00;;;3.00;99.90;;;;;;5067421;28;20431;-79
2021/01/19 11:46:12;;;;;;;9.57;2.80;;;3.20;99.90;;;;;;5064726;28;20462;-80
2021/01/19 11:48:39;;;;;;;3.87;2.73;;;3.10;99.90;;;;;;5027091;28;20785;-80
2021/01/19 11:51:05;;;;;;;2.73;2.17;;;2.90;99.90;;;;;;5045513;28;20930;-82
2021/01/19 11:53:31;;;;;;;3.20;2.30;;;3.10;99.90;;;;;;5050755;28;20415;-82
2021/01/19 11:55:59;;;;;;;1.53;1.43;;;3.10;99.90;;;;;;5039266;28;20435;-83
2021/01/19 11:58:24;;;;;;;1.77;1.67;;;2.90;99.90;;;;;;5045644;28;20401;-83
2021/01/19 12:00:51;;;;;;;2.77;2.30;;;2.80;99.90;;;;;;5053289;28;20430;-84
2021/01/19 12:03:20;;;;;;;3.37;2.70;;;2.90;99.90;;;;;;5055812;28;20270;-84
2021/01/19 12:05:46;;;;;;;4.93;3.73;;;2.90;99.90;;;;;;5055973;28;20439;-85
2021/01/19 12:08:15;;;;;;;3.33;3.03;;;2.90;99.90;;;;;;5018034;28;20422;-83
2021/01/19 12:10:44;;;;;;;2.93;2.60;;;3.00;99.90;;;;;;5053821;28;20402;-83
2021/01/19 12:13:10;;;;;;;1.97;1.80;;;2.90;99.90;;;;;;5048640;28;20414;-84
2021/01/19 12:15:36;;;;;;;2.30;2.10;;;2.60;99.90;;;;;;5050277;28;20469;-84
2021/01/19 12:18:02;;;;;;;2.70;2.50;;;2.70;99.90;;;;;;5052609;28;20450;-84
2021/01/19 12:20:28;;;;;;;16.10;2.70;;;2.50;99.90;;;;;;5012330;28;20224;-83
2021/01/19 12:22:53;;;;;;;4.73;4.37;;;2.30;99.90;;;;;;5011216;28;20205;-85
2021/01/19 12:25:19;;;;;;;8.03;3.80;;;2.30;99.90;;;;;;5006316;28;20274;-85
2021/01/19 12:27:49;;;;;;;6.00;3.43;;;2.30;99.90;;;;;;5009638;28;20185;-85
2021/01/19 12:30:15;;;;;;;5.37;3.30;;;2.40;99.90;;;;;;5012740;28;20196;-85
2021/01/19 12:32:44;;;;;;;3.50;3.13;;;2.30;99.90;;;;;;5011507;28;20465;-84
2021/01/19 12:35:11;;;;;;;2.50;2.00;;;2.30;99.90;;;;;;4997228;28;20992;-83
2021/01/19 12:37:36;;;;;;;4.67;2.50;;;2.10;99.90;;;;;;4995322;28;20451;-85
2021/01/19 12:40:05;;;;;;;7.53;2.53;;;2.30;99.90;;;;;;5014489;28;20431;-85
2021/01/19 12:42:30;;;;;;;4.30;3.43;;;2.20;99.90;;;;;;5001673;28;20263;-84
2021/01/19 12:44:57;;;;;;;3.30;1.80;;;2.20;99.90;;;;;;5017634;28;20898;-84
2021/01/19 12:47:23;;;;;;;4.20;2.10;;;2.10;99.90;;;;;;5027132;28;20674;-84
2021/01/19 12:49:49;;;;;;;2.40;2.20;;;2.40;99.90;;;;;;5014533;28;20416;-85
2021/01/19 12:52:16;;;;;;;3.40;3.10;;;2.20;99.90;;;;;;4994103;28;20454;-85
2021/01/19 12:54:41;;;;;;;5.57;2.90;;;2.10;99.90;;;;;;5039082;28;20738;-84
2021/01/19 12:57:12;;;;;;;6.33;2.80;;;2.20;99.90;;;;;;4974153;28;20518;-83
2021/01/19 12:59:40;;;;;;;5.53;2.63;;;2.30;99.90;;;;;;4968135;28;20195;-84
2021/01/19 13:02:06;;;;;;;4.97;3.43;;;2.30;99.90;;;;;;4970665;28;20426;-85
2021/01/19 13:04:33;;;;;;;3.33;2.90;;;2.40;99.90;;;;;;5025194;28;20449;-82
2021/01/19 13:06:59;;;;;;;6.60;3.17;;;2.40;99.90;;;;;;5040007;28;20487;-80
2021/01/19 13:09:26;;;;;;;3.83;3.50;;;2.50;99.90;;;;;;5014295;28;20425;-81
2021/01/19 13:11:51;;;;;;;4.03;3.70;;;2.50;99.90;;;;;;4980299;28;20504;-85
2021/01/19 13:14:17;;;;;;;4.87;2.77;;;2.50;99.90;;;;;;4978651;28;20903;-85